Terminal Aerodrome Forecast
Issued by NWS Wilmington, NC

Home | Current Version | Previous Version | Text Only | Print | Product List | Glossary On
Versions: 1 2 3 4 5 6 7 8 9 10 11 12 13 14 15 16 17 18 19 20 21 22
000
FTUS42 KILM 252320
TAFLBT
TAF
KLBT 252320Z 2600/2624 28006KT P6SM SCT020 BKN035
     FM260600 29003KT 6SM HZ SKC
     FM260900 29003KT 1 1/2SM BR OVC050
     FM261200 32002KT P6SM OVC050
     FM261500 24004KT P6SM FEW250
     FM261800 23006KT P6SM BKN050
     FM262100 20006KT P6SM SCT250=

USA.gov is the U.S. government's official web portal to all federal, state and local government web resources and services.